createdAt,value
2022-10-19T00:01:16.643Z,15.17
2022-10-19T00:03:45.020Z,15.19
2022-10-19T00:06:38.480Z,15.16
2022-10-19T00:09:11.281Z,15.13
2022-10-19T00:11:40.412Z,15.06
2022-10-19T00:14:08.603Z,15.06
2022-10-19T00:16:38.488Z,15.05
2022-10-19T00:19:13.458Z,14.99
2022-10-19T00:21:40.893Z,14.87
2022-10-19T00:24:23.510Z,14.94
2022-10-19T00:26:50.293Z,14.92
2022-10-19T00:29:17.794Z,14.81
2022-10-19T00:31:44.379Z,14.92
2022-10-19T00:34:11.298Z,14.76
2022-10-19T00:36:40.190Z,14.88
2022-10-19T00:39:10.600Z,14.87
2022-10-19T00:41:38.492Z,14.85
2022-10-19T00:44:15.917Z,14.86
2022-10-19T00:46:48.817Z,14.78
2022-10-19T00:49:22.333Z,14.86
2022-10-19T00:51:56.133Z,14.76
2022-10-19T00:54:23.723Z,14.81
2022-10-19T00:56:56.623Z,14.66
2022-10-19T00:59:26.823Z,14.68
2022-10-19T01:01:55.035Z,14.74
2022-10-19T01:04:23.681Z,14.73
2022-10-19T01:09:18.241Z,14.67
2022-10-19T01:12:09.909Z,14.80
2022-10-19T01:14:43.451Z,14.81
2022-10-19T01:17:16.943Z,14.80
2022-10-19T01:20:01.700Z,14.75
2022-10-19T01:22:37.978Z,14.68
2022-10-19T01:25:32.383Z,14.58
2022-10-19T01:28:17.685Z,14.52
2022-10-19T01:31:19.478Z,14.44
2022-10-19T01:34:09.817Z,14.41
2022-10-19T01:36:47.643Z,14.36
2022-10-19T01:39:49.809Z,14.32
2022-10-19T01:42:36.644Z,14.33
2022-10-19T01:45:21.913Z,14.23
2022-10-19T01:48:10.031Z,14.27
2022-10-19T01:53:51.489Z,14.33
2022-10-19T01:56:24.727Z,14.29
2022-10-19T01:58:54.138Z,14.22
2022-10-19T02:01:24.306Z,14.14
2022-10-19T02:03:54.159Z,14.27
2022-10-19T02:06:26.696Z,14.17
2022-10-19T02:08:54.085Z,14.10
2022-10-19T02:11:22.247Z,14.18
2022-10-19T02:14:04.100Z,14.14
2022-10-19T02:17:01.247Z,14.26
2022-10-19T02:19:28.245Z,14.14
2022-10-19T02:21:56.492Z,14.05
2022-10-19T02:24:26.168Z,14.08
2022-10-19T02:26:55.611Z,14.10
2022-10-19T02:29:22.688Z,13.98
2022-10-19T02:31:52.905Z,13.95
2022-10-19T02:34:19.793Z,13.98
2022-10-19T02:36:46.663Z,14.06
2022-10-19T02:39:13.334Z,13.93
2022-10-19T02:41:49.296Z,14.01
2022-10-19T02:44:48.667Z,13.97
2022-10-19T02:47:39.214Z,13.96
2022-10-19T02:50:08.208Z,13.86
2022-10-19T02:52:37.895Z,13.98
2022-10-19T02:55:06.479Z,13.96
2022-10-19T02:57:33.731Z,13.96
2022-10-19T03:00:00.759Z,13.99
2022-10-19T03:02:27.558Z,13.96
2022-10-19T03:04:54.195Z,13.94
2022-10-19T03:07:21.798Z,13.98
2022-10-19T03:09:49.589Z,13.92
2022-10-19T03:12:16.970Z,13.91
2022-10-19T03:14:43.648Z,13.92
2022-10-19T03:17:10.562Z,13.93
2022-10-19T03:19:40.495Z,13.93
2022-10-19T03:22:07.567Z,13.92
2022-10-19T03:24:34.569Z,13.84
2022-10-19T03:27:01.169Z,13.92
2022-10-19T03:29:27.914Z,13.75
2022-10-19T03:31:55.860Z,13.91
2022-10-19T03:34:23.009Z,13.88
2022-10-19T03:36:50.108Z,13.71
2022-10-19T03:39:17.818Z,13.65
2022-10-19T03:41:44.868Z,13.69
2022-10-19T03:44:15.231Z,13.64
2022-10-19T03:46:42.227Z,13.64
2022-10-19T03:49:12.265Z,13.62
2022-10-19T03:51:42.098Z,13.65
2022-10-19T03:54:13.011Z,13.68
2022-10-19T03:56:39.806Z,13.65
2022-10-19T03:59:07.634Z,13.67
2022-10-19T04:01:37.266Z,13.69
2022-10-19T04:04:20.918Z,13.70
2022-10-19T04:06:49.894Z,13.61
2022-10-19T04:09:18.907Z,13.68
2022-10-19T04:11:46.645Z,13.60
2022-10-19T04:14:26.946Z,13.63
2022-10-19T04:17:01.129Z,13.65
2022-10-19T04:19:31.216Z,13.51
2022-10-19T04:21:58.152Z,13.63
2022-10-19T04:24:28.133Z,13.52
2022-10-19T04:26:55.865Z,13.59
2022-10-19T04:29:27.894Z,13.58
2022-10-19T04:31:56.828Z,13.54
2022-10-19T04:34:24.250Z,13.57
2022-10-19T04:36:50.918Z,13.47
2022-10-19T04:39:20.269Z,13.50
2022-10-19T04:41:50.254Z,13.47
2022-10-19T04:44:18.282Z,13.54
2022-10-19T04:46:47.955Z,13.60
2022-10-19T04:49:17.788Z,13.52
2022-10-19T04:51:47.065Z,13.51
2022-10-19T04:54:13.719Z,13.60
2022-10-19T04:56:40.391Z,13.68
2022-10-19T04:59:07.416Z,13.69
2022-10-19T05:01:34.402Z,13.49
2022-10-19T05:04:02.499Z,13.68
2022-10-19T05:06:31.553Z,13.63
2022-10-19T05:08:59.248Z,13.61
2022-10-19T05:11:32.417Z,13.69
2022-10-19T05:13:59.377Z,13.63
2022-10-19T05:16:26.302Z,13.63
2022-10-19T05:19:01.741Z,13.60
2022-10-19T05:21:29.088Z,13.65
2022-10-19T05:23:57.360Z,13.64
2022-10-19T05:26:30.321Z,13.61
2022-10-19T05:29:01.970Z,13.51
2022-10-19T05:31:33.683Z,13.52
2022-10-19T05:36:37.795Z,13.54
2022-10-19T05:39:22.016Z,13.50
2022-10-19T05:41:52.521Z,13.53
2022-10-19T05:44:22.863Z,13.53
2022-10-19T05:46:51.201Z,13.43
2022-10-19T05:49:22.370Z,13.56
2022-10-19T05:51:51.926Z,13.58
2022-10-19T05:54:22.699Z,13.59
2022-10-19T05:56:52.539Z,13.52
2022-10-19T05:59:20.664Z,13.61
2022-10-19T06:01:55.846Z,13.64
2022-10-19T06:04:22.609Z,13.61
2022-10-19T06:06:49.447Z,13.75
2022-10-19T06:09:16.388Z,13.81
2022-10-19T06:11:43.476Z,13.84
2022-10-19T06:14:16.345Z,14.00
2022-10-19T06:16:43.020Z,13.95
2022-10-19T06:19:09.670Z,14.04
2022-10-19T06:21:37.249Z,14.19
2022-10-19T06:24:06.709Z,14.37
2022-10-19T06:26:35.089Z,14.65
2022-10-19T06:29:03.386Z,14.95
2022-10-19T06:31:32.613Z,15.28
2022-10-19T06:33:59.688Z,15.68
2022-10-19T06:36:28.913Z,16.04
2022-10-19T06:39:07.709Z,16.35
2022-10-19T06:41:34.677Z,16.87
2022-10-19T06:44:01.479Z,17.21
2022-10-19T06:46:28.469Z,17.47
2022-10-19T06:48:57.781Z,17.78
2022-10-19T06:51:26.241Z,18.10
2022-10-19T06:53:56.531Z,18.36
2022-10-19T06:56:25.276Z,18.68
2022-10-19T06:58:52.239Z,19.25
2022-10-19T07:01:20.019Z,19.36
2022-10-19T07:03:46.782Z,19.74
2022-10-19T07:06:14.148Z,19.92
2022-10-19T07:08:42.599Z,20.18
2022-10-19T07:11:10.430Z,20.45
2022-10-19T07:13:37.671Z,20.68
2022-10-19T07:16:07.146Z,20.87
2022-10-19T07:18:35.386Z,21.15
2022-10-19T07:21:05.251Z,21.43
2022-10-19T07:23:34.138Z,21.71
2022-10-19T07:26:09.865Z,21.69
2022-10-19T07:28:36.604Z,21.76
2022-10-19T07:31:08.155Z,21.89
2022-10-19T07:33:35.104Z,22.41
2022-10-19T07:36:03.678Z,22.40
2022-10-19T07:38:31.221Z,22.50
2022-10-19T07:41:06.802Z,22.37
2022-10-19T07:43:33.547Z,22.64
2022-10-19T07:46:02.155Z,22.81
2022-10-19T07:48:29.313Z,23.74
2022-10-19T07:50:56.138Z,24.00
2022-10-19T07:53:23.387Z,24.40
2022-10-19T07:55:49.991Z,24.49
2022-10-19T07:58:16.547Z,24.81
2022-10-19T08:00:43.173Z,24.42
2022-10-19T08:03:57.231Z,24.18
2022-10-19T08:06:08.556Z,25.11
2022-10-19T08:08:35.397Z,25.17
2022-10-19T08:11:14.957Z,25.45
2022-10-19T08:13:42.442Z,24.82
2022-10-19T08:16:29.294Z,25.32
2022-10-19T08:18:58.613Z,25.51
2022-10-19T08:21:26.913Z,25.72
2022-10-19T08:23:53.642Z,25.94
2022-10-19T08:26:20.439Z,26.33
2022-10-19T08:28:47.037Z,26.87
2022-10-19T08:31:16.467Z,26.89
2022-10-19T08:33:43.962Z,26.76
2022-10-19T08:36:12.449Z,26.54
2022-10-19T08:38:39.390Z,26.21
2022-10-19T08:41:13.436Z,26.16
2022-10-19T08:43:48.600Z,26.88
2022-10-19T08:46:30.133Z,27.35
2022-10-19T08:48:56.991Z,27.81
2022-10-19T08:51:23.699Z,27.64
2022-10-19T08:53:55.978Z,27.51
2022-10-19T08:56:50.572Z,27.35
2022-10-19T08:59:30.731Z,27.77
2022-10-19T09:02:10.590Z,28.36
2022-10-19T09:04:42.012Z,28.30
2022-10-19T09:07:34.819Z,28.26
2022-10-19T09:10:13.599Z,28.43
2022-10-19T09:13:17.373Z,28.57
2022-10-19T09:15:50.573Z,28.39
2022-10-19T09:18:23.949Z,27.28
2022-10-19T09:20:55.935Z,27.95
2022-10-19T09:24:02.748Z,27.99
2022-10-19T09:26:32.724Z,28.30
2022-10-19T09:29:16.366Z,28.88
2022-10-19T09:31:43.511Z,27.98
2022-10-19T09:34:25.911Z,28.59
2022-10-19T09:36:57.110Z,27.06
2022-10-19T09:39:28.623Z,26.78
2022-10-19T09:42:21.917Z,27.43
2022-10-19T09:44:54.384Z,27.60
2022-10-19T09:47:42.539Z,27.65
2022-10-19T09:50:15.915Z,28.47
2022-10-19T09:52:44.762Z,28.23
2022-10-19T09:55:14.320Z,27.46
2022-10-19T09:57:46.045Z,28.12
2022-10-19T10:00:25.343Z,28.28
2022-10-19T10:02:56.171Z,28.50
2022-10-19T10:05:38.729Z,28.74
2022-10-19T10:08:13.738Z,28.84
2022-10-19T10:10:45.852Z,28.93
2022-10-19T10:13:25.403Z,27.69
2022-10-19T10:15:57.667Z,28.55
2022-10-19T10:18:26.575Z,28.35
2022-10-19T10:21:01.269Z,27.22
2022-10-19T10:23:32.197Z,28.18
2022-10-19T10:26:00.500Z,28.24
2022-10-19T10:28:30.206Z,28.57
2022-10-19T10:31:02.056Z,28.68
2022-10-19T10:33:44.338Z,28.81
2022-10-19T10:36:12.396Z,28.28
2022-10-19T10:38:51.687Z,27.89
2022-10-19T10:41:23.384Z,27.49
2022-10-19T10:43:59.636Z,27.99
2022-10-19T10:46:34.960Z,28.10
2022-10-19T10:49:08.012Z,27.81
2022-10-19T10:51:37.467Z,27.78
2022-10-19T10:54:17.405Z,27.39
2022-10-19T10:56:54.630Z,27.46
2022-10-19T10:59:33.882Z,26.23
2022-10-19T11:02:12.134Z,25.84
2022-10-19T11:04:47.411Z,25.93
2022-10-19T11:07:27.840Z,26.27
2022-10-19T11:09:57.308Z,25.99
2022-10-19T11:12:38.537Z,25.85
2022-10-19T11:15:17.317Z,26.02
2022-10-19T11:18:12.877Z,26.53
2022-10-19T11:20:46.878Z,26.19
2022-10-19T11:23:17.842Z,26.10
2022-10-19T11:26:41.270Z,26.20
2022-10-19T11:29:22.317Z,26.70
2022-10-19T11:31:53.331Z,26.26
2022-10-19T11:34:32.015Z,26.69
2022-10-19T11:37:17.054Z,26.85
2022-10-19T11:39:52.623Z,26.80
2022-10-19T11:43:07.945Z,26.50
2022-10-19T11:45:52.991Z,26.56
2022-10-19T11:48:44.232Z,26.77
2022-10-19T11:51:22.070Z,25.83
2022-10-19T11:53:57.686Z,25.90
2022-10-19T11:56:58.161Z,26.30
2022-10-19T11:59:40.230Z,26.15
2022-10-19T12:02:45.642Z,26.12
2022-10-19T12:05:36.717Z,26.41
2022-10-19T12:08:23.066Z,26.63
2022-10-19T12:11:02.001Z,26.81
2022-10-19T12:13:45.589Z,26.34
2022-10-19T12:16:14.412Z,26.47
2022-10-19T12:19:04.602Z,25.95
2022-10-19T12:21:38.913Z,26.35
2022-10-19T12:24:14.763Z,26.67
2022-10-19T12:26:42.550Z,26.40
2022-10-19T12:29:19.703Z,26.32
2022-10-19T12:31:47.833Z,26.68
2022-10-19T12:34:39.303Z,26.60
2022-10-19T12:37:34.993Z,26.57
2022-10-19T12:40:10.596Z,26.56
2022-10-19T12:42:52.088Z,26.43
2022-10-19T12:45:30.585Z,26.36
2022-10-19T12:48:09.014Z,26.59
2022-10-19T12:50:47.950Z,26.06
2022-10-19T12:53:38.388Z,26.44
2022-10-19T12:56:20.040Z,26.01
2022-10-19T12:59:01.593Z,26.16
2022-10-19T13:01:28.299Z,26.19
2022-10-19T13:04:14.218Z,26.33
2022-10-19T13:06:49.367Z,26.42
2022-10-19T13:09:35.442Z,26.25
2022-10-19T13:12:25.624Z,26.38
2022-10-19T13:15:00.178Z,26.25
2022-10-19T13:17:44.126Z,26.20
2022-10-19T13:20:14.200Z,26.02
2022-10-19T13:22:47.584Z,26.18
2022-10-19T13:25:17.315Z,26.15
2022-10-19T13:27:45.462Z,26.04
2022-10-19T13:30:47.578Z,26.12
2022-10-19T13:33:28.497Z,26.14
2022-10-19T13:36:00.955Z,26.14
2022-10-19T13:39:03.393Z,26.21
2022-10-19T13:41:38.816Z,26.13
2022-10-19T13:44:19.152Z,26.12
2022-10-19T13:47:07.595Z,25.64
2022-10-19T13:50:17.021Z,25.83
2022-10-19T13:53:23.775Z,25.94
2022-10-19T13:56:20.257Z,25.87
2022-10-19T13:58:46.751Z,25.91
2022-10-19T14:01:40.978Z,25.88
2022-10-19T14:04:45.179Z,25.89
2022-10-19T14:07:25.699Z,25.91
2022-10-19T14:10:14.254Z,25.86
2022-10-19T14:12:43.599Z,25.77
2022-10-19T14:15:32.897Z,25.74
2022-10-19T14:18:03.782Z,25.63
2022-10-19T14:20:37.236Z,25.71
2022-10-19T14:23:25.617Z,25.77
2022-10-19T14:25:55.724Z,25.63
2022-10-19T14:28:23.540Z,25.58
2022-10-19T14:30:59.823Z,25.54
2022-10-19T14:33:29.880Z,25.52
2022-10-19T14:35:56.729Z,25.66
2022-10-19T14:38:38.661Z,25.67
2022-10-19T14:41:17.235Z,25.72
2022-10-19T14:43:44.182Z,25.71
2022-10-19T14:46:15.951Z,25.73
2022-10-19T14:48:48.538Z,25.54
2022-10-19T14:51:40.868Z,25.45
2022-10-19T14:54:28.974Z,25.37
2022-10-19T14:57:03.365Z,25.42
2022-10-19T14:59:33.773Z,25.36
2022-10-19T15:02:03.952Z,25.37
2022-10-19T15:04:34.557Z,25.22
2022-10-19T15:07:05.047Z,25.25
2022-10-19T15:09:47.854Z,25.18
2022-10-19T15:12:19.400Z,25.24
2022-10-19T15:14:47.897Z,25.14
2022-10-19T15:17:29.567Z,25.15
2022-10-19T15:20:01.210Z,25.10
2022-10-19T15:22:31.261Z,25.11
2022-10-19T15:25:07.012Z,25.05
2022-10-19T15:27:42.247Z,25.00
2022-10-19T15:30:17.815Z,24.95
2022-10-19T15:33:14.514Z,24.91
2022-10-19T15:35:44.555Z,24.82
2022-10-19T15:38:14.761Z,24.77
2022-10-19T15:40:43.628Z,24.65
2022-10-19T15:43:35.015Z,24.58
2022-10-19T15:46:07.476Z,24.51
2022-10-19T15:48:51.065Z,24.41
2022-10-19T15:51:23.281Z,24.30
2022-10-19T15:53:57.336Z,24.18
2022-10-19T15:56:26.533Z,24.02
2022-10-19T15:58:56.185Z,23.85
2022-10-19T16:01:26.390Z,23.73
2022-10-19T16:03:54.149Z,23.56
2022-10-19T16:06:23.803Z,23.45
2022-10-19T16:08:54.227Z,23.36
2022-10-19T16:11:23.095Z,23.22
2022-10-19T16:13:49.917Z,23.08
2022-10-19T16:16:25.766Z,22.90
2022-10-19T16:18:53.513Z,22.74
2022-10-19T16:21:22.173Z,22.60
2022-10-19T16:23:49.018Z,22.51
2022-10-19T16:26:16.734Z,22.48
2022-10-19T16:28:43.998Z,22.42
2022-10-19T16:31:11.262Z,22.34
2022-10-19T16:33:38.057Z,22.24
2022-10-19T16:36:06.836Z,22.13
2022-10-19T16:38:34.318Z,22.01
2022-10-19T16:41:03.026Z,21.93
2022-10-19T16:43:30.184Z,21.80
2022-10-19T16:45:57.202Z,21.67
2022-10-19T16:48:24.362Z,21.52
2022-10-19T16:51:19.634Z,21.37
2022-10-19T16:53:49.352Z,21.20
2022-10-19T16:56:15.975Z,21.00
2022-10-19T16:58:42.543Z,20.89
2022-10-19T17:01:10.221Z,20.75
2022-10-19T17:03:37.305Z,20.71
2022-10-19T17:06:08.113Z,20.76
2022-10-19T17:08:37.022Z,20.75
2022-10-19T17:11:21.836Z,20.73
2022-10-19T17:13:50.337Z,20.71
2022-10-19T17:16:17.223Z,20.60
2022-10-19T17:18:44.104Z,20.40
2022-10-19T17:21:17.430Z,20.19
2022-10-19T17:23:44.578Z,20.01
2022-10-19T17:26:12.295Z,19.89
2022-10-19T17:28:40.021Z,19.74
2022-10-19T17:31:17.087Z,19.60
2022-10-19T17:33:43.757Z,19.41
2022-10-19T17:36:13.886Z,19.35
2022-10-19T17:38:41.208Z,19.29
2022-10-19T17:41:14.097Z,19.31
2022-10-19T17:43:42.833Z,19.27
2022-10-19T17:46:12.462Z,19.21
2022-10-19T17:48:40.579Z,19.15
2022-10-19T17:51:11.208Z,19.08
2022-10-19T17:53:37.816Z,19.04
2022-10-19T17:56:09.189Z,18.94
2022-10-19T17:58:39.157Z,18.89
2022-10-19T18:01:08.182Z,18.79
2022-10-19T18:03:35.897Z,18.76
2022-10-19T18:06:10.872Z,18.77
2022-10-19T18:08:40.683Z,18.75
2022-10-19T18:11:09.179Z,18.73
2022-10-19T18:16:13.497Z,18.61
2022-10-19T18:18:42.022Z,18.56
2022-10-19T18:21:11.875Z,18.54
2022-10-19T18:23:38.614Z,18.45
2022-10-19T18:26:17.220Z,18.45
2022-10-19T18:28:43.616Z,18.43
2022-10-19T18:31:19.715Z,18.37
2022-10-19T18:33:48.204Z,18.32
2022-10-19T18:36:15.300Z,18.26
2022-10-19T18:38:42.087Z,18.28
2022-10-19T18:43:41.428Z,18.25
2022-10-19T18:46:09.271Z,18.24
2022-10-19T18:48:38.178Z,18.16
2022-10-19T18:51:08.271Z,18.08
2022-10-19T18:53:35.384Z,18.03
2022-10-19T18:56:05.939Z,17.97
2022-10-19T18:58:33.704Z,17.98
2022-10-19T19:01:17.410Z,17.89
2022-10-19T19:03:46.881Z,17.76
2022-10-19T19:06:25.138Z,17.72
2022-10-19T19:08:56.249Z,17.70
2022-10-19T19:11:26.216Z,17.65
2022-10-19T19:13:59.558Z,17.69
2022-10-19T19:16:27.779Z,17.64
2022-10-19T19:18:54.920Z,17.58
2022-10-19T19:21:26.764Z,17.60
2022-10-19T19:23:55.493Z,17.57
2022-10-19T19:26:23.411Z,17.55
2022-10-19T19:28:51.742Z,17.45
2022-10-19T19:31:19.671Z,17.34
2022-10-19T19:33:47.834Z,17.31
2022-10-19T19:36:16.975Z,17.17
2022-10-19T19:38:44.847Z,17.13
2022-10-19T19:41:14.111Z,17.05
2022-10-19T19:43:42.553Z,17.06
2022-10-19T19:46:13.672Z,17.05
2022-10-19T19:48:42.566Z,16.94
2022-10-19T19:51:12.061Z,16.91
2022-10-19T19:53:39.053Z,16.88
2022-10-19T19:56:10.537Z,16.85
2022-10-19T19:58:37.378Z,16.86
2022-10-19T20:01:16.214Z,16.79
2022-10-19T20:03:43.431Z,16.81
2022-10-19T20:06:10.296Z,16.75
2022-10-19T20:08:37.511Z,16.79
2022-10-19T20:11:07.392Z,16.74
2022-10-19T20:13:34.629Z,16.73
2022-10-19T20:16:10.276Z,16.68
2022-10-19T20:18:36.908Z,16.53
2022-10-19T20:21:05.324Z,16.59
2022-10-19T20:23:32.967Z,16.56
2022-10-19T20:25:59.485Z,16.54
2022-10-19T20:28:27.371Z,16.53
2022-10-19T20:31:08.626Z,16.52
2022-10-19T20:33:37.576Z,16.53
2022-10-19T20:36:13.002Z,16.53
2022-10-19T20:38:46.194Z,16.60
2022-10-19T20:41:13.171Z,16.57
2022-10-19T20:43:42.917Z,16.61
2022-10-19T20:46:15.781Z,16.64
2022-10-19T20:48:42.752Z,16.58
2022-10-19T20:51:18.056Z,16.55
2022-10-19T20:53:46.712Z,16.63
2022-10-19T20:56:16.098Z,16.58
2022-10-19T20:58:43.858Z,16.53
2022-10-19T21:01:13.901Z,16.47
2022-10-19T21:03:46.681Z,16.47
2022-10-19T21:06:13.501Z,16.37
2022-10-19T21:08:40.299Z,16.40
2022-10-19T21:11:18.431Z,16.40
2022-10-19T21:13:45.435Z,16.29
2022-10-19T21:16:17.715Z,16.26
2022-10-19T21:18:46.059Z,16.20
2022-10-19T21:21:24.492Z,16.15
2022-10-19T21:23:55.292Z,16.32
2022-10-19T21:26:27.827Z,16.30
2022-10-19T21:28:57.097Z,16.23
2022-10-19T21:31:25.892Z,16.22
2022-10-19T21:33:52.491Z,16.24
2022-10-19T21:36:21.192Z,16.15
2022-10-19T21:38:47.760Z,16.23
2022-10-19T21:41:20.875Z,16.27
2022-10-19T21:43:53.840Z,16.24
2022-10-19T21:46:21.897Z,16.23
2022-10-19T21:48:49.574Z,16.23
2022-10-19T21:51:55.230Z,16.23
2022-10-19T21:54:29.170Z,16.16
2022-10-19T21:56:59.409Z,16.09
2022-10-19T21:59:29.316Z,16.09
2022-10-19T22:01:56.559Z,16.05
2022-10-19T22:04:24.109Z,16.05
2022-10-19T22:06:50.921Z,16.09
2022-10-19T22:09:21.614Z,16.10
2022-10-19T22:11:48.891Z,15.98
2022-10-19T22:14:16.598Z,16.00
2022-10-19T22:16:52.542Z,16.04
2022-10-19T22:19:19.908Z,16.12
2022-10-19T22:21:46.593Z,16.14
2022-10-19T22:24:14.761Z,16.19
2022-10-19T22:26:45.466Z,16.23
2022-10-19T22:29:12.697Z,16.16
2022-10-19T22:31:39.728Z,16.16
2022-10-19T22:34:10.057Z,16.24
2022-10-19T22:36:37.163Z,16.15
2022-10-19T22:39:04.815Z,16.15
2022-10-19T22:42:27.879Z,16.08
2022-10-19T22:45:50.636Z,15.97
2022-10-19T22:49:13.931Z,15.94
2022-10-19T22:52:37.660Z,15.92
2022-10-19T22:55:05.296Z,15.85
2022-10-19T22:57:31.995Z,15.90
2022-10-19T22:59:58.726Z,15.84
2022-10-19T23:02:28.295Z,15.92
2022-10-19T23:04:58.628Z,15.89
2022-10-19T23:07:25.727Z,15.93
2022-10-19T23:09:52.687Z,15.88
2022-10-19T23:12:23.422Z,15.95
2022-10-19T23:14:53.061Z,15.96
2022-10-19T23:17:20.294Z,15.91
2022-10-19T23:19:50.066Z,15.86
2022-10-19T23:22:20.241Z,15.86
2022-10-19T23:24:58.070Z,15.94
2022-10-19T23:27:25.231Z,15.94
2022-10-19T23:29:52.043Z,15.92
2022-10-19T23:32:42.530Z,15.97
2022-10-19T23:35:18.431Z,15.94
2022-10-19T23:37:44.995Z,15.94
2022-10-19T23:40:17.698Z,15.94
2022-10-19T23:42:44.544Z,15.93
2022-10-19T23:45:13.129Z,15.93
2022-10-19T23:47:42.932Z,15.91
2022-10-19T23:50:13.936Z,15.86
2022-10-19T23:52:41.924Z,15.84
2022-10-19T23:55:09.447Z,15.79
2022-10-19T23:57:36.645Z,15.77
